Flight Track Log - Related Links

Times and Time Zones

All times are in EDT time to prevent confusion due to time zone crossing. See the CTL309 flight status page for this flight to view local times or setup timezone preferences in your user account.


Time Position Orientation Groundspeed Altitude Reporting Facility
EDT Latitude Longitude Course Direction KTS MPH feet Rate Location/Type
Thu 03:57:03 AM 40.0719 -83.1197 244° Southwest 142 163 1,400  Level Indianapolis Center
Thu 03:58:04 AM 40.0542 -83.1667 244° Southwest 147 169 2,100 645 Climbing Indianapolis Center
Thu 03:59:04 AM 40.0322 -83.2103 237° Southwest 136 157 2,700 793 Climbing Indianapolis Center
Thu 04:00:05 AM 40.0106 -83.2486 234° Southwest 124 143 3,700 984 Climbing Indianapolis Center
Thu 04:01:06 AM 39.9900 -83.2733 223° Southwest 105 121 4,700 1,041 Climbing Indianapolis Center
Thu 04:02:06 AM 39.9753 -83.3044 238° Southwest 98 113 5,800 645 Climbing Indianapolis Center
Thu 04:03:07 AM 39.9561 -83.3400 235° Southwest 138 159 6,000 99 Climbing Indianapolis Center
Thu 04:04:07 AM 39.9342 -83.3836 237° Southwest 143 165 6,000 -50 Level Indianapolis Center
Thu 04:05:08 AM 39.9139 -83.4303 240° Southwest 146 168 5,900 -49 Descending Indianapolis Center
Thu 04:06:09 AM 39.8917 -83.4764 238° Southwest 144 166 5,900  Level Indianapolis Center
Thu 04:07:09 AM 39.8717 -83.5231 241° Southwest 143 165 5,900 50 Level Indianapolis Center
Thu 04:08:10 AM 39.8497 -83.5664 237° Southwest 147 169 6,000 50 Climbing Indianapolis Center
Thu 04:09:10 AM 39.8253 -83.6122 235° Southwest 168 193 6,000 -50 Level Indianapolis Center
Thu 04:10:11 AM 39.8033 -83.6531 235° Southwest 148 170 5,900  Descending Indianapolis Center
Thu 04:11:12 AM 39.7814 -83.6964 237° Southwest 143 165 6,000 50 Climbing Indianapolis Center
Thu 04:12:12 AM 39.7592 -83.7397 236° Southwest 145 167 6,000  Level Indianapolis Center
Thu 04:13:13 AM 39.7372 -83.7831 237° Southwest 146 168 6,000 -50 Level Indianapolis Center
Thu 04:14:13 AM 39.7147 -83.8292 238° Southwest 150 173 5,900 -50 Descending Indianapolis Center
Thu 04:15:14 AM 39.6903 -83.8750 235° Southwest 145 167 5,900 49 Level Indianapolis Center
Thu 04:16:15 AM 39.6681 -83.9208 238° Southwest 146 168 6,000 47 Climbing Indianapolis Center
Thu 04:17:23 AM 39.6458 -83.9606 234° Southwest 144 166 6,000 -141 Level Indianapolis Center
Thu 04:18:23 AM 39.6242 -84.0044 237° Southwest 143 165 5,700 -446 Descending Indianapolis Center
Thu 04:19:24 AM 39.6008 -84.0533 238° Southwest 150 173 5,100 -496 Descending Indianapolis Center
Thu 04:20:24 AM 39.5761 -84.1000 236° Southwest 155 178 4,700 -400 Descending Indianapolis Center
Thu 04:21:24 AM 39.5525 -84.1467 237° Southwest 154 177 4,300 -248 Descending Indianapolis Center
Thu 04:22:25 AM 39.5306 -84.1900 237° Southwest 153 176 4,200 -98 Descending Indianapolis Center
Thu 04:24:00 AM 39.4935 -84.2539 233° Southwest  Level FlightAware Approximate
Thu 04:31:00 AM 39.3500 -84.5167 229° Southwest  Level FlightAware Approximate
Thu 04:32:00 AM 39.3638 -84.5219 229° Southwest  Level Estimated
Thu 04:33:00 AM 39.3638 -84.5219 229° Southwest  Level Estimated
Thu 04:34:00 AM 39.3638 -84.5219 229° Southwest  Level Estimated
Thu 04:35:00 AM 39.3638 -84.5219 229° Southwest  Level Estimated
Thu 04:36:00 AM 39.3638 -84.5219 229° Southwest  Level Estimated

Login

Don't have an account? Register now (free) for customized features, flight alerts, and more!